createdAt,value
2023-02-17T00:03:31.454Z,18.15
2023-02-17T00:08:36.208Z,18.00
2023-02-17T00:13:39.344Z,15.60
2023-02-17T00:18:42.461Z,14.75
2023-02-17T00:23:47.540Z,15.07
2023-02-17T00:28:51.133Z,13.15
2023-02-17T00:33:55.065Z,13.05
2023-02-17T00:38:59.558Z,11.45
2023-02-17T00:44:02.720Z,12.48
2023-02-17T00:49:05.891Z,12.32
2023-02-17T00:54:10.378Z,12.73
2023-02-17T00:59:13.575Z,12.95
2023-02-17T01:04:16.855Z,13.55
2023-02-17T01:09:23.815Z,14.73
2023-02-17T01:14:26.915Z,15.55
2023-02-17T01:19:32.515Z,14.30
2023-02-17T01:24:37.038Z,15.65
2023-02-17T01:29:41.592Z,14.30
2023-02-17T01:34:44.738Z,14.57
2023-02-17T01:39:47.843Z,15.18
2023-02-17T01:45:09.500Z,14.38
2023-02-17T01:50:14.029Z,14.45
2023-02-17T01:55:18.647Z,14.07
2023-02-17T02:00:22.412Z,14.60
2023-02-17T02:05:30.838Z,14.23
2023-02-17T02:10:33.974Z,14.00
2023-02-17T02:15:41.545Z,14.82
2023-02-17T02:21:03.546Z,16.67
2023-02-17T02:26:24.422Z,15.32
2023-02-17T02:31:41.775Z,16.52
2023-02-17T02:36:51.073Z,14.75
2023-02-17T02:41:55.921Z,17.15
2023-02-17T02:46:59.719Z,16.55
2023-02-17T02:52:08.412Z,16.90
2023-02-17T02:57:16.807Z,16.85
2023-02-17T03:02:29.101Z,16.30
2023-02-17T03:07:36.236Z,15.38
2023-02-17T03:12:39.576Z,17.00
2023-02-17T03:17:42.792Z,14.38
2023-02-17T03:22:48.496Z,14.05
2023-02-17T03:27:52.115Z,12.68
2023-02-17T03:32:55.445Z,14.60
2023-02-17T03:37:59.930Z,12.00
2023-02-17T03:43:02.992Z,12.52
2023-02-17T03:48:06.180Z,12.57
2023-02-17T03:53:11.787Z,11.10
2023-02-17T03:58:14.935Z,11.32
2023-02-17T04:03:18.003Z,12.52
2023-02-17T04:08:22.857Z,11.48
2023-02-17T04:13:25.971Z,11.25
2023-02-17T04:18:29.475Z,13.13
2023-02-17T04:23:35.122Z,12.95
2023-02-17T04:28:41.158Z,15.75
2023-02-17T04:33:44.303Z,15.70
2023-02-17T04:38:48.820Z,16.20
2023-02-17T04:43:51.921Z,17.67
2023-02-17T04:48:55.143Z,17.70
2023-02-17T04:53:59.630Z,18.38
2023-02-17T04:59:02.702Z,17.73
2023-02-17T05:04:06.004Z,17.88
2023-02-17T05:09:10.574Z,18.15
2023-02-17T05:14:13.797Z,17.98
2023-02-17T05:19:16.883Z,19.10
2023-02-17T05:24:21.352Z,19.42
2023-02-17T05:29:24.905Z,21.25
2023-02-17T05:34:28.018Z,20.88
2023-02-17T05:39:32.518Z,20.58
2023-02-17T05:44:35.671Z,20.70
2023-02-17T05:49:38.773Z,22.30
2023-02-17T05:54:43.266Z,20.27
2023-02-17T05:59:46.370Z,22.58
2023-02-17T06:04:49.616Z,20.80
2023-02-17T06:09:54.183Z,21.20
2023-02-17T06:14:57.240Z,20.05
2023-02-17T06:20:00.348Z,21.27
2023-02-17T06:25:04.869Z,19.20
2023-02-17T06:30:08.936Z,18.38
2023-02-17T06:35:12.215Z,18.80
2023-02-17T06:40:16.963Z,17.50
2023-02-17T06:45:20.082Z,16.73
2023-02-17T06:50:23.376Z,17.15
2023-02-17T06:55:27.896Z,18.40
2023-02-17T07:00:31.009Z,19.15
2023-02-17T07:05:35.591Z,17.98
2023-02-17T07:10:40.132Z,17.17
2023-02-17T07:15:43.377Z,18.05
2023-02-17T07:20:47.674Z,17.65
2023-02-17T07:25:52.301Z,18.25
2023-02-17T07:30:55.420Z,18.00
2023-02-17T07:35:59.078Z,19.10
2023-02-17T07:41:07.068Z,19.30
2023-02-17T07:46:10.779Z,19.75
2023-02-17T07:51:14.620Z,21.55
2023-02-17T07:56:21.616Z,21.45
2023-02-17T08:01:26.078Z,20.52
2023-02-17T08:06:29.327Z,21.45
2023-02-17T08:11:51.958Z,19.67
2023-02-17T08:16:55.345Z,19.25
2023-02-17T08:21:58.937Z,19.00
2023-02-17T08:27:03.675Z,17.40
2023-02-17T08:32:07.081Z,16.95
2023-02-17T08:37:11.058Z,16.85
2023-02-17T08:42:15.854Z,15.15
2023-02-17T08:47:19.092Z,15.27
2023-02-17T08:52:22.701Z,12.88
2023-02-17T08:57:27.742Z,12.23
2023-02-17T09:02:31.061Z,11.40
2023-02-17T09:07:34.276Z,11.30
2023-02-17T09:12:38.960Z,10.57
2023-02-17T09:17:42.250Z,9.95
2023-02-17T09:22:45.679Z,9.73
2023-02-17T09:27:50.247Z,10.60
2023-02-17T09:32:53.718Z,9.18
2023-02-17T09:37:56.888Z,9.63
2023-02-17T09:43:02.509Z,7.75
2023-02-17T09:48:07.425Z,8.07
2023-02-17T09:53:13.297Z,8.20
2023-02-17T09:58:20.400Z,7.65
2023-02-17T10:03:26.590Z,7.82
2023-02-17T10:08:32.566Z,6.32
2023-02-17T10:13:38.502Z,6.63
2023-02-17T10:18:45.197Z,5.85
2023-02-17T10:23:49.098Z,6.43
2023-02-17T10:28:55.396Z,5.13
2023-02-17T10:34:02.400Z,5.80
2023-02-17T10:39:10.003Z,6.10
2023-02-17T10:44:16.638Z,5.47
2023-02-17T10:49:22.209Z,5.47
2023-02-17T10:54:30.361Z,5.32
2023-02-17T10:59:38.937Z,6.07
2023-02-17T11:04:42.869Z,5.55
2023-02-17T11:09:50.537Z,5.15
2023-02-17T11:14:56.018Z,4.93
2023-02-17T11:20:00.398Z,5.60
2023-02-17T11:25:05.412Z,6.35
2023-02-17T11:30:15.901Z,5.53
2023-02-17T11:35:26.022Z,7.20
2023-02-17T11:40:30.753Z,6.28
2023-02-17T11:45:37.574Z,5.45
2023-02-17T11:50:45.765Z,6.47
2023-02-17T11:55:54.950Z,5.55
2023-02-17T12:01:04.171Z,5.43
2023-02-17T12:06:09.980Z,5.22
2023-02-17T12:11:19.691Z,6.47
2023-02-17T12:16:28.809Z,7.45
2023-02-17T12:21:40.438Z,6.72
2023-02-17T12:26:46.409Z,7.55
2023-02-17T12:32:01.799Z,7.25
2023-02-17T12:37:06.583Z,8.40
2023-02-17T12:42:13.304Z,8.50
2023-02-17T12:47:22.014Z,9.48
2023-02-17T12:52:27.575Z,9.10
2023-02-17T12:57:45.744Z,8.65
2023-02-17T13:02:50.639Z,10.88
2023-02-17T13:07:58.364Z,9.60
2023-02-17T13:13:05.639Z,9.30
2023-02-17T13:18:13.177Z,9.00
2023-02-17T13:23:27.308Z,8.00
2023-02-17T13:28:37.669Z,8.65
2023-02-17T13:33:44.451Z,6.50
2023-02-17T13:38:56.643Z,6.43
2023-02-17T13:43:59.892Z,7.07
2023-02-17T13:49:05.977Z,6.43
2023-02-17T13:54:09.817Z,7.15
2023-02-17T13:59:18.118Z,7.00
2023-02-17T14:04:24.318Z,6.85
2023-02-17T14:09:28.909Z,5.60
2023-02-17T14:14:32.958Z,8.63
2023-02-17T14:19:45.404Z,5.72
2023-02-17T14:24:58.308Z,5.47
2023-02-17T14:30:02.822Z,5.25
2023-02-17T14:35:10.544Z,5.25
2023-02-17T14:40:17.096Z,5.85
2023-02-17T14:45:20.950Z,5.18
2023-02-17T14:50:25.803Z,4.45
2023-02-17T14:55:32.670Z,5.13
2023-02-17T15:00:36.409Z,5.85
2023-02-17T15:05:42.629Z,5.72
2023-02-17T15:10:46.129Z,5.40
2023-02-17T15:15:49.811Z,5.60
2023-02-17T15:20:54.396Z,5.18
2023-02-17T15:25:57.679Z,5.25
2023-02-17T15:31:01.133Z,4.82
2023-02-17T15:36:06.372Z,5.35
2023-02-17T15:41:13.058Z,4.78
2023-02-17T15:46:16.937Z,5.60
2023-02-17T15:51:21.502Z,6.15
2023-02-17T15:56:26.072Z,4.85
2023-02-17T16:01:30.355Z,4.93
2023-02-17T16:06:34.819Z,4.25
2023-02-17T16:11:41.716Z,4.45
2023-02-17T16:16:45.289Z,5.07
2023-02-17T16:21:49.885Z,4.22
2023-02-17T16:26:53.130Z,4.40
2023-02-17T16:31:56.669Z,5.13
2023-02-17T16:37:02.888Z,5.72
2023-02-17T16:42:06.268Z,5.03
2023-02-17T16:47:18.022Z,5.03
2023-02-17T16:52:25.239Z,4.68
2023-02-17T16:57:28.506Z,5.55
2023-02-17T17:02:32.113Z,4.85
2023-02-17T17:07:36.980Z,5.68
2023-02-17T17:12:40.298Z,4.65
2023-02-17T17:17:45.184Z,5.13
2023-02-17T17:22:50.223Z,5.88
2023-02-17T17:27:53.848Z,4.57
2023-02-17T17:32:56.950Z,6.70
2023-02-17T17:38:01.629Z,5.90
2023-02-17T17:43:04.761Z,5.70
2023-02-17T17:48:07.898Z,5.97
2023-02-17T17:53:12.377Z,5.32
2023-02-17T17:58:16.283Z,5.60
2023-02-17T18:03:19.433Z,5.65
2023-02-17T18:08:24.282Z,5.65
2023-02-17T18:13:27.734Z,6.03
2023-02-17T18:18:31.722Z,6.75
2023-02-17T18:23:36.506Z,6.20
2023-02-17T18:28:40.572Z,7.07
2023-02-17T18:33:44.251Z,6.70
2023-02-17T18:38:49.177Z,8.82
2023-02-17T18:43:52.941Z,8.90
2023-02-17T18:48:56.475Z,9.50
2023-02-17T18:54:02.506Z,10.18
2023-02-17T18:59:06.164Z,11.65
2023-02-17T19:04:10.492Z,10.30
2023-02-17T19:09:15.305Z,11.68
2023-02-17T19:14:18.529Z,11.00
2023-02-17T19:19:21.834Z,11.85
2023-02-17T19:24:26.509Z,11.90
2023-02-17T19:29:29.932Z,11.57
2023-02-17T19:34:33.393Z,11.38
2023-02-17T19:39:37.844Z,13.50
2023-02-17T19:44:41.436Z,12.93
2023-02-17T19:49:44.693Z,14.05
2023-02-17T19:54:51.203Z,12.93
2023-02-17T19:59:54.638Z,13.93
2023-02-17T20:04:57.920Z,13.98
2023-02-17T20:10:02.545Z,15.00
2023-02-17T20:15:06.268Z,16.70
2023-02-17T20:20:11.858Z,15.75
2023-02-17T20:25:16.638Z,14.77
2023-02-17T20:30:20.311Z,16.50
2023-02-17T20:35:23.731Z,16.73
2023-02-17T20:40:28.781Z,18.08
2023-02-17T20:45:32.262Z,19.80
2023-02-17T20:50:35.471Z,20.10
2023-02-17T20:55:40.328Z,22.65
2023-02-17T21:00:43.711Z,19.80
2023-02-17T21:05:47.172Z,19.88
2023-02-17T21:10:51.949Z,20.48
2023-02-17T21:15:55.265Z,20.77
2023-02-17T21:20:58.768Z,18.80
2023-02-17T21:26:03.456Z,20.75
2023-02-17T21:31:07.197Z,21.77
2023-02-17T21:36:11.352Z,21.90
2023-02-17T21:41:17.440Z,22.88
2023-02-17T21:46:21.984Z,19.88
2023-02-17T21:51:25.592Z,21.75
2023-02-17T21:56:30.401Z,21.88
2023-02-17T22:01:33.720Z,21.73
2023-02-17T22:06:37.761Z,20.55
2023-02-17T22:11:43.003Z,22.90
2023-02-17T22:16:46.831Z,22.05
2023-02-17T22:21:51.152Z,19.08
2023-02-17T22:26:55.905Z,18.63
2023-02-17T22:31:59.170Z,22.73
2023-02-17T22:37:02.340Z,22.02
2023-02-17T22:42:07.535Z,23.23
2023-02-17T22:47:10.637Z,21.45
2023-02-17T22:52:14.130Z,18.70
2023-02-17T22:57:18.795Z,20.08
2023-02-17T23:02:21.949Z,20.45
2023-02-17T23:07:25.174Z,21.52
2023-02-17T23:12:30.556Z,22.92
2023-02-17T23:17:53.630Z,19.50
2023-02-17T23:22:56.678Z,21.65
2023-02-17T23:28:01.245Z,23.08
2023-02-17T23:33:04.464Z,25.33
2023-02-17T23:38:07.595Z,27.02
2023-02-17T23:43:12.104Z,25.15
2023-02-17T23:48:15.464Z,25.02
2023-02-17T23:53:18.556Z,25.33
2023-02-17T23:58:23.063Z,26.23
